Noyes, Minnesota
Current Conditions -  °F | °C
As of 8:33 AM on Saturday 25 Oct 2014 (Local Time) from KHCO Reporting Station
Clear Clear  
Wind Chill: 31°   Ceiling: Unl
Heat Index: 37°   Visibility: 10mi
Dew Point: 30°   Wind: 9mph
Humidity: 75%   Direction: 260°W
Pressure: 30"   Gusts: NA
Location:  49°N, 97.21°W
Report Text: KHCO 251333Z AUTO 26008KT 10SM CLR 03/M01 A3000 RMK AO2
Loading
Personal Weather Stations






























Interactive Weather Map
Tropical Storm Tracking
New forecast layout! Learn more

10-Day Weather Forecast

Advertisements
Track Severe Weather on mobile